Time,TemperatureF,DewpointF,PressureIn,WindDirection,WindDirectionDegrees,WindSpeedMPH,WindSpeedGustMPH,Humidity,HourlyPrecipIn,Conditions,Clouds,dailyrainin,SoftwareType,DateUTC
2013-10-24 00:15:00,40.0,31.0,29.67,North,0,0.0,0.0,69,0.00,,,0.00,,2013-10-24 04:15:00,
2013-10-24 00:24:00,40.0,31.0,29.67,North,0,0.0,0.0,69,0.00,,,0.00,,2013-10-24 04:24:00,
2013-10-24 03:22:00,38.0,34.0,29.67,North,0,0.0,0.0,85,0.00,,,0.00,,2013-10-24 07:22:00,
2013-10-24 03:42:00,38.0,28.0,29.68,North,0,0.0,0.0,67,0.01,,,0.01,,2013-10-24 07:42:00,
2013-10-24 03:52:00,38.0,28.0,29.68,North,0,0.0,0.0,67,0.01,,,0.01,,2013-10-24 07:52:00,
2013-10-24 04:11:00,38.0,28.0,29.68,North,0,0.0,0.0,67,0.01,,,0.01,,2013-10-24 08:11:00,
2013-10-24 04:22:00,38.0,28.0,29.68,North,0,0.0,0.0,67,0.02,,,0.02,,2013-10-24 08:22:00,
2013-10-24 09:42:00,38.0,25.0,29.70,North,0,0.0,0.0,59,0.00,,,0.02,,2013-10-24 13:42:00,
2013-10-24 10:11:00,38.0,25.0,29.70,North,0,0.0,0.0,59,0.00,,,0.02,,2013-10-24 14:11:00,
2013-10-24 10:22:00,38.0,25.0,29.70,North,0,0.0,0.0,59,0.00,,,0.02,,2013-10-24 14:22:00,
2013-10-24 10:42:00,41.0,27.0,29.69,North,0,0.0,0.0,57,0.00,,,0.02,,2013-10-24 14:42:00,
2013-10-24 10:52:00,41.0,27.0,29.69,North,0,0.0,0.0,57,0.00,,,0.02,,2013-10-24 14:52:00,
2013-10-24 11:11:00,41.0,27.0,29.69,North,0,0.0,0.0,57,0.00,,,0.02,,2013-10-24 15:11:00,
2013-10-24 11:21:00,41.0,27.0,29.69,North,0,0.0,0.0,57,0.00,,,0.02,,2013-10-24 15:21:00,
2013-10-24 11:43:00,43.0,26.0,29.69,North,0,0.0,0.0,50,0.00,,,0.02,,2013-10-24 15:43:00,
2013-10-24 11:53:00,43.0,26.0,29.69,North,0,0.0,0.0,50,0.00,,,0.02,,2013-10-24 15:53:00,
2013-10-24 12:13:00,43.0,26.0,29.69,North,0,0.0,0.0,50,0.00,,,0.02,,2013-10-24 16:13:00,
2013-10-24 12:23:00,43.0,26.0,29.69,North,0,0.0,0.0,50,0.00,,,0.02,,2013-10-24 16:23:00,
2013-10-24 12:42:00,43.0,25.0,29.69,North,0,0.0,0.0,48,0.00,,,0.02,,2013-10-24 16:42:00,
2013-10-24 22:12:00,37.0,34.0,29.82,North,0,0.0,0.0,88,0.01,,,0.11,,2013-10-25 02:12:00,
2013-10-24 22:23:00,37.0,34.0,29.82,North,0,0.0,0.0,88,0.01,,,0.12,,2013-10-25 02:23:00,
2013-10-24 22:42:00,37.0,34.0,29.84,North,0,0.0,0.0,88,0.01,,,0.12,,2013-10-25 02:42:00,
2013-10-24 22:52:00,37.0,34.0,29.84,North,0,0.0,0.0,88,0.01,,,0.12,,2013-10-25 02:52:00,
2013-10-24 23:12:00,37.0,34.0,29.84,North,0,0.0,0.0,88,0.01,,,0.12,,2013-10-25 03:12:00,
2013-10-24 23:23:00,37.0,34.0,29.85,North,0,0.0,0.0,88,0.00,,,0.12,,2013-10-25 03:23:00,
2013-10-24 23:44:00,37.0,34.0,29.85,North,0,0.0,0.0,88,0.00,,,0.12,,2013-10-25 03:44:00,
2013-10-24 23:54:00,37.0,34.0,29.85,North,0,0.0,0.0,88,0.00,,,0.12,,2013-10-25 03:54:00,